Warren, ID (83671)

5:59 AM PST on February 10, 2016 (GMT -0800)
MesoWest | | Change Station
CLOSE
Current Station
Personal Weather Station
Location: Warren, ID
Elevation: 6520 ft
Nearby Weather Stations

Elev 6520 ft 45.19 °N, 115.97 °W | Updated 59 minutes ago

Partly Cloudy
Partly Cloudy
31.0 °F
Feels Like 31.0 °F
N
1.0
Wind Variable Wind from North
Gusts 6.0 mph

Today
High -- | Low -- °F
--% Chance of Precip.
Yesterday
High -- | Low -- °F
Precip. -- in
Pressure 30.50 in
Visibility 0.5 miles
Clouds
Dew Point Not available.
Humidity Not available.
Rainfall in
Snow Depth Not available.
6:51 AM 5:02 PM
Waxing Crescent, 5% visible
METAR KMYL 101351Z AUTO 00000KT 1/2SM FZFG VV002 M09/M11 A3034 RMK AO2 VIS 1/4V5 SLP327 T10941106
Pressure 30.50 in
Visibility 0.5 miles
Clouds
Dew Point Not available.
Humidity Not available.
Rainfall in
Snow Depth Not available.
6:51 AM 5:02 PM
Waxing Crescent, 5% visible
METAR KMYL 101351Z AUTO 00000KT 1/2SM FZFG VV002 M09/M11 A3034 RMK AO2 VIS 1/4V5 SLP327 T10941106

10-Day Weather Forecast

Almanac

Astronomy

Feb. 10, 2016 Rise Set
Actual Time
Civil Twilight
Nautical Twilight
Astronomical Twilight
Moon
Length of Visible Light
Length of Day
Tomorrow will be .
, % of the Moon is Illuminated

Today's Extremes

State Highs State Lows

Community

WunderPhotos

Upload Photos

1,891,845 photos uploaded!

WunderBlog® & News

Nearby

Air Quality

  Air Quality AQ Index Pollutant
Not available.

Snow Depth

Station Depth Elevation

Earthquake Activity

City Distance Mag. Time & Date
Minimum magnitude displayed is 2.5.

Coastal Water Temperatures

Place Temperature

Stations

Nearby Weather Stations

Station Location Temp. Windchill Dew Point Humidity Wind Precip. Elev Updated Type
                   

Watches & Warnings

There are currently no watches in effect.